sensor_id;sensor_type;location;lat;lon;timestamp;pressure;altitude;pressure_sealevel;temperature;humidity
61035;BME280;46916;40.564;-7.958;2022-12-08T00:01:24;96034.06;;;11.14;98.95
61035;BME280;46916;40.564;-7.958;2022-12-08T00:03:25;96021.28;;;11.20;98.74
61035;BME280;46916;40.564;-7.958;2022-12-08T00:05:26;96024.41;;;11.15;99.06
61035;BME280;46916;40.564;-7.958;2022-12-08T00:07:45;96017.84;;;11.19;98.60
61035;BME280;46916;40.564;-7.958;2022-12-08T00:10:06;96003.59;;;11.13;99.12
61035;BME280;46916;40.564;-7.958;2022-12-08T00:12:10;95988.06;;;11.12;99.27
61035;BME280;46916;40.564;-7.958;2022-12-08T00:14:10;95992.47;;;11.11;99.75
61035;BME280;46916;40.564;-7.958;2022-12-08T00:16:11;95988.22;;;11.10;99.69
61035;BME280;46916;40.564;-7.958;2022-12-08T00:18:12;95982.16;;;11.10;99.79
61035;BME280;46916;40.564;-7.958;2022-12-08T00:20:12;95995.75;;;11.05;99.67
61035;BME280;46916;40.564;-7.958;2022-12-08T00:22:13;96003.63;;;11.05;100.00
61035;BME280;46916;40.564;-7.958;2022-12-08T00:24:14;96010.16;;;11.09;99.72
61035;BME280;46916;40.564;-7.958;2022-12-08T00:26:15;96017.06;;;11.10;99.58
61035;BME280;46916;40.564;-7.958;2022-12-08T00:28:16;96000.00;;;11.14;99.29
61035;BME280;46916;40.564;-7.958;2022-12-08T00:30:17;95998.03;;;11.16;99.58
61035;BME280;46916;40.564;-7.958;2022-12-08T00:32:17;95998.22;;;11.15;99.42
61035;BME280;46916;40.564;-7.958;2022-12-08T00:34:18;95985.25;;;11.13;99.33
61035;BME280;46916;40.564;-7.958;2022-12-08T00:36:19;95975.78;;;11.04;99.93
61035;BME280;46916;40.564;-7.958;2022-12-08T00:38:20;95964.97;;;11.07;99.81
61035;BME280;46916;40.564;-7.958;2022-12-08T00:40:21;95961.38;;;11.08;99.64
61035;BME280;46916;40.564;-7.958;2022-12-08T00:42:22;95955.16;;;11.01;99.84
61035;BME280;46916;40.564;-7.958;2022-12-08T00:44:23;95960.75;;;10.98;100.00
61035;BME280;46916;40.564;-7.958;2022-12-08T00:46:23;95955.66;;;10.97;100.00
61035;BME280;46916;40.564;-7.958;2022-12-08T00:48:24;95947.81;;;10.97;100.00
61035;BME280;46916;40.564;-7.958;2022-12-08T00:50:24;95945.38;;;10.95;100.00
61035;BME280;46916;40.564;-7.958;2022-12-08T00:52:25;95945.38;;;10.95;100.00
61035;BME280;46916;40.564;-7.958;2022-12-08T00:54:26;95944.69;;;10.93;100.00
61035;BME280;46916;40.564;-7.958;2022-12-08T00:56:26;95948.31;;;10.92;100.00
61035;BME280;46916;40.564;-7.958;2022-12-08T00:58:27;95943.25;;;10.90;100.00
61035;BME280;46916;40.564;-7.958;2022-12-08T01:00:28;95948.50;;;10.90;100.00
61035;BME280;46916;40.564;-7.958;2022-12-08T01:02:28;95942.09;;;10.93;100.00
61035;BME280;46916;40.564;-7.958;2022-12-08T01:04:31;95944.38;;;10.96;100.00
61035;BME280;46916;40.564;-7.958;2022-12-08T01:06:34;95938.31;;;10.96;100.00
61035;BME280;46916;40.564;-7.958;2022-12-08T01:08:36;95927.66;;;10.97;100.00
61035;BME280;46916;40.564;-7.958;2022-12-08T01:10:37;95937.00;;;11.00;100.00
61035;BME280;46916;40.564;-7.958;2022-12-08T01:12:37;95926.53;;;11.00;100.00
61035;BME280;46916;40.564;-7.958;2022-12-08T01:14:38;95928.63;;;11.04;100.00
61035;BME280;46916;40.564;-7.958;2022-12-08T01:16:39;95929.13;;;11.08;100.00
61035;BME280;46916;40.564;-7.958;2022-12-08T01:18:40;95923.69;;;11.09;100.00
61035;BME280;46916;40.564;-7.958;2022-12-08T01:20:41;95940.06;;;11.11;100.00
61035;BME280;46916;40.564;-7.958;2022-12-08T01:22:42;95935.47;;;11.13;100.00
61035;BME280;46916;40.564;-7.958;2022-12-08T01:24:42;95931.88;;;11.14;100.00
61035;BME280;46916;40.564;-7.958;2022-12-08T01:26:43;95938.75;;;11.15;100.00
61035;BME280;46916;40.564;-7.958;2022-12-08T01:28:44;95939.25;;;11.19;100.00
61035;BME280;46916;40.564;-7.958;2022-12-08T01:30:45;95922.34;;;11.22;99.91
61035;BME280;46916;40.564;-7.958;2022-12-08T01:32:46;95918.75;;;11.23;99.70
61035;BME280;46916;40.564;-7.958;2022-12-08T01:34:47;95924.97;;;11.22;99.94
61035;BME280;46916;40.564;-7.958;2022-12-08T01:36:47;95908.41;;;11.21;99.71
61035;BME280;46916;40.564;-7.958;2022-12-08T01:38:49;95911.84;;;11.22;99.91
61035;BME280;46916;40.564;-7.958;2022-12-08T01:40:49;95905.00;;;11.21;99.94
61035;BME280;46916;40.564;-7.958;2022-12-08T01:42:50;95905.81;;;11.21;99.96
61035;BME280;46916;40.564;-7.958;2022-12-08T01:44:55;95909.91;;;11.24;99.47
61035;BME280;46916;40.564;-7.958;2022-12-08T01:46:56;95908.56;;;11.28;99.65
61035;BME280;46916;40.564;-7.958;2022-12-08T01:49:18;95898.09;;;11.28;99.47
61035;BME280;46916;40.564;-7.958;2022-12-08T01:51:20;95895.28;;;11.29;99.16
61035;BME280;46916;40.564;-7.958;2022-12-08T01:53:27;95906.56;;;11.30;99.15
61035;BME280;46916;40.564;-7.958;2022-12-08T01:55:38;95905.63;;;11.31;99.04
61035;BME280;46916;40.564;-7.958;2022-12-08T01:57:47;95908.06;;;11.32;99.21
61035;BME280;46916;40.564;-7.958;2022-12-08T01:59:54;95913.09;;;11.34;99.26
61035;BME280;46916;40.564;-7.958;2022-12-08T02:01:56;95924.25;;;11.36;98.80
61035;BME280;46916;40.564;-7.958;2022-12-08T02:03:59;95929.31;;;11.37;98.89
61035;BME280;46916;40.564;-7.958;2022-12-08T02:06:01;95938.81;;;11.38;99.09
61035;BME280;46916;40.564;-7.958;2022-12-08T02:08:06;95944.72;;;11.40;98.75
61035;BME280;46916;40.564;-7.958;2022-12-08T02:10:07;95953.38;;;11.41;99.28
61035;BME280;46916;40.564;-7.958;2022-12-08T02:12:09;95989.09;;;11.42;99.09
61035;BME280;46916;40.564;-7.958;2022-12-08T02:14:11;95972.53;;;11.41;99.09
61035;BME280;46916;40.564;-7.958;2022-12-08T02:18:32;95947.38;;;11.32;99.83
61035;BME280;46916;40.564;-7.958;2022-12-08T02:41:51;95810.69;;;11.12;100.00
61035;BME280;46916;40.564;-7.958;2022-12-08T02:43:37;95805.31;;;11.06;100.00
61035;BME280;46916;40.564;-7.958;2022-12-08T02:47:43;95751.16;;;11.06;100.00
61035;BME280;46916;40.564;-7.958;2022-12-08T02:49:45;95739.88;;;10.98;100.00
61035;BME280;46916;40.564;-7.958;2022-12-08T02:51:45;95742.06;;;10.94;100.00
61035;BME280;46916;40.564;-7.958;2022-12-08T02:53:46;95746.16;;;10.88;100.00
61035;BME280;46916;40.564;-7.958;2022-12-08T02:56:13;95743.06;;;10.85;100.00
61035;BME280;46916;40.564;-7.958;2022-12-08T02:58:51;95748.00;;;10.80;100.00
61035;BME280;46916;40.564;-7.958;2022-12-08T03:05:59;95750.06;;;10.93;100.00
61035;BME280;46916;40.564;-7.958;2022-12-08T03:12:29;95742.34;;;10.99;100.00
61035;BME280;46916;40.564;-7.958;2022-12-08T03:14:32;95719.56;;;11.00;100.00
61035;BME280;46916;40.564;-7.958;2022-12-08T03:16:37;95696.75;;;11.08;100.00
61035;BME280;46916;40.564;-7.958;2022-12-08T03:18:44;95703.53;;;11.03;100.00
61035;BME280;46916;40.564;-7.958;2022-12-08T03:20:47;95709.97;;;10.92;100.00
61035;BME280;46916;40.564;-7.958;2022-12-08T03:22:51;95723.91;;;10.84;100.00
61035;BME280;46916;40.564;-7.958;2022-12-08T03:24:54;95724.91;;;10.83;100.00
61035;BME280;46916;40.564;-7.958;2022-12-08T03:26:59;95729.16;;;10.84;100.00
61035;BME280;46916;40.564;-7.958;2022-12-08T03:29:02;95738.81;;;10.84;100.00
61035;BME280;46916;40.564;-7.958;2022-12-08T03:31:06;95747.69;;;10.83;100.00
61035;BME280;46916;40.564;-7.958;2022-12-08T03:33:15;95744.41;;;10.81;100.00
61035;BME280;46916;40.564;-7.958;2022-12-08T03:35:26;95739.16;;;10.81;100.00
61035;BME280;46916;40.564;-7.958;2022-12-08T03:37:29;95738.81;;;10.84;100.00
61035;BME280;46916;40.564;-7.958;2022-12-08T03:39:29;95740.44;;;10.85;100.00
61035;BME280;46916;40.564;-7.958;2022-12-08T03:41:30;95739.47;;;10.86;100.00
61035;BME280;46916;40.564;-7.958;2022-12-08T03:43:30;95743.72;;;10.87;100.00
61035;BME280;46916;40.564;-7.958;2022-12-08T03:45:31;95749.44;;;10.90;100.00
61035;BME280;46916;40.564;-7.958;2022-12-08T03:47:32;95758.59;;;10.95;100.00
61035;BME280;46916;40.564;-7.958;2022-12-08T03:49:33;95756.59;;;10.97;100.00
61035;BME280;46916;40.564;-7.958;2022-12-08T03:51:33;95742.97;;;11.01;100.00
61035;BME280;46916;40.564;-7.958;2022-12-08T03:53:34;95721.84;;;11.03;100.00
61035;BME280;46916;40.564;-7.958;2022-12-08T03:55:35;95704.97;;;11.05;100.00
61035;BME280;46916;40.564;-7.958;2022-12-08T03:57:35;95686.69;;;10.97;100.00
61035;BME280;46916;40.564;-7.958;2022-12-08T03:59:36;95686.69;;;10.97;100.00
61035;BME280;46916;40.564;-7.958;2022-12-08T04:01:37;95694.06;;;10.94;100.00
61035;BME280;46916;40.564;-7.958;2022-12-08T04:03:37;95654.78;;;10.94;100.00
61035;BME280;46916;40.564;-7.958;2022-12-08T04:05:38;95676.56;;;10.94;100.00
61035;BME280;46916;40.564;-7.958;2022-12-08T04:07:39;95696.69;;;10.94;100.00
61035;BME280;46916;40.564;-7.958;2022-12-08T04:09:39;95712.59;;;10.92;100.00
61035;BME280;46916;40.564;-7.958;2022-12-08T04:11:41;95694.25;;;10.92;100.00
61035;BME280;46916;40.564;-7.958;2022-12-08T04:13:41;95668.06;;;10.92;100.00
61035;BME280;46916;40.564;-7.958;2022-12-08T04:15:46;95612.28;;;11.06;100.00
61035;BME280;46916;40.564;-7.958;2022-12-08T04:17:47;95577.50;;;11.12;100.00
61035;BME280;46916;40.564;-7.958;2022-12-08T04:19:48;95565.41;;;11.11;100.00
61035;BME280;46916;40.564;-7.958;2022-12-08T04:21:48;95587.72;;;11.07;100.00
61035;BME280;46916;40.564;-7.958;2022-12-08T04:23:49;95601.50;;;11.01;100.00
61035;BME280;46916;40.564;-7.958;2022-12-08T04:25:51;95604.84;;;10.95;100.00
61035;BME280;46916;40.564;-7.958;2022-12-08T04:27:51;95623.72;;;10.90;100.00
61035;BME280;46916;40.564;-7.958;2022-12-08T04:29:52;95644.47;;;10.92;100.00
61035;BME280;46916;40.564;-7.958;2022-12-08T04:31:53;95646.28;;;10.91;100.00
61035;BME280;46916;40.564;-7.958;2022-12-08T04:33:53;95647.09;;;10.92;100.00
61035;BME280;46916;40.564;-7.958;2022-12-08T04:35:54;95645.56;;;10.98;100.00
61035;BME280;46916;40.564;-7.958;2022-12-08T04:37:55;95650.47;;;11.01;100.00
61035;BME280;46916;40.564;-7.958;2022-12-08T04:39:55;95646.69;;;11.03;100.00
61035;BME280;46916;40.564;-7.958;2022-12-08T04:41:56;95655.19;;;11.05;100.00
61035;BME280;46916;40.564;-7.958;2022-12-08T04:43:56;95635.50;;;11.09;100.00
61035;BME280;46916;40.564;-7.958;2022-12-08T04:45:57;95630.91;;;11.11;100.00
61035;BME280;46916;40.564;-7.958;2022-12-08T04:47:59;95637.78;;;11.12;100.00
61035;BME280;46916;40.564;-7.958;2022-12-08T04:50:00;95633.19;;;11.14;100.00
61035;BME280;46916;40.564;-7.958;2022-12-08T04:52:01;95621.72;;;11.15;100.00
61035;BME280;46916;40.564;-7.958;2022-12-08T04:54:01;95616.28;;;11.17;100.00
61035;BME280;46916;40.564;-7.958;2022-12-08T04:56:02;95623.13;;;11.18;100.00
61035;BME280;46916;40.564;-7.958;2022-12-08T04:58:03;95634.47;;;11.19;100.00
61035;BME280;46916;40.564;-7.958;2022-12-08T05:00:04;95648.38;;;11.19;100.00
61035;BME280;46916;40.564;-7.958;2022-12-08T05:02:05;95640.31;;;11.21;100.00
61035;BME280;46916;40.564;-7.958;2022-12-08T05:04:06;95635.91;;;11.21;100.00
61035;BME280;46916;40.564;-7.958;2022-12-08T05:06:10;95625.59;;;11.20;100.00
61035;BME280;46916;40.564;-7.958;2022-12-08T05:08:11;95628.22;;;11.20;100.00
61035;BME280;46916;40.564;-7.958;2022-12-08T05:10:12;95629.03;;;11.20;100.00
61035;BME280;46916;40.564;-7.958;2022-12-08T05:12:13;95635.91;;;11.21;100.00
61035;BME280;46916;40.564;-7.958;2022-12-08T05:14:15;95620.97;;;11.22;100.00
61035;BME280;46916;40.564;-7.958;2022-12-08T05:16:16;95622.78;;;11.21;100.00
61035;BME280;46916;40.564;-7.958;2022-12-08T05:18:16;95616.13;;;11.19;100.00
61035;BME280;46916;40.564;-7.958;2022-12-08T05:20:17;95617.28;;;11.16;100.00
61035;BME280;46916;40.564;-7.958;2022-12-08T05:22:18;95620.53;;;11.18;100.00
61035;BME280;46916;40.564;-7.958;2022-12-08T05:24:18;95619.09;;;11.15;100.00
61035;BME280;46916;40.564;-7.958;2022-12-08T05:26:20;95612.56;;;11.11;100.00
61035;BME280;46916;40.564;-7.958;2022-12-08T05:28:20;95604.06;;;11.09;100.00
61035;BME280;46916;40.564;-7.958;2022-12-08T05:30:21;95611.47;;;11.06;100.00
61035;BME280;46916;40.564;-7.958;2022-12-08T05:32:22;95616.69;;;11.06;100.00
61035;BME280;46916;40.564;-7.958;2022-12-08T05:34:23;95620.16;;;11.06;100.00
61035;BME280;46916;40.564;-7.958;2022-12-08T05:36:23;95624.41;;;11.07;100.00
61035;BME280;46916;40.564;-7.958;2022-12-08T05:38:24;95628.63;;;11.08;100.00
61035;BME280;46916;40.564;-7.958;2022-12-08T05:40:24;95627.63;;;11.09;100.00
61035;BME280;46916;40.564;-7.958;2022-12-08T05:42:25;95614.06;;;11.06;100.00
61035;BME280;46916;40.564;-7.958;2022-12-08T05:44:26;95618.03;;;11.02;100.00
61035;BME280;46916;40.564;-7.958;2022-12-08T05:46:27;95622.13;;;11.04;100.00
61035;BME280;46916;40.564;-7.958;2022-12-08T05:48:27;95613.09;;;11.07;100.00
61035;BME280;46916;40.564;-7.958;2022-12-08T05:50:28;95611.91;;;11.09;100.00
61035;BME280;46916;40.564;-7.958;2022-12-08T05:52:31;95632.72;;;11.11;100.00
61035;BME280;46916;40.564;-7.958;2022-12-08T05:54:32;95633.34;;;11.13;100.00
61035;BME280;46916;40.564;-7.958;2022-12-08T05:56:32;95624.47;;;11.14;100.00
61035;BME280;46916;40.564;-7.958;2022-12-08T05:58:33;95635.63;;;11.16;100.00
61035;BME280;46916;40.564;-7.958;2022-12-08T06:00:34;95648.53;;;11.18;100.00
61035;BME280;46916;40.564;-7.958;2022-12-08T06:02:34;95655.41;;;11.19;100.00
61035;BME280;46916;40.564;-7.958;2022-12-08T06:04:35;95658.72;;;11.12;100.00
61035;BME280;46916;40.564;-7.958;2022-12-08T06:06:36;95647.97;;;11.07;100.00
61035;BME280;46916;40.564;-7.958;2022-12-08T06:08:37;95649.31;;;11.03;100.00
61035;BME280;46916;40.564;-7.958;2022-12-08T06:10:40;95640.34;;;10.98;100.00
61035;BME280;46916;40.564;-7.958;2022-12-08T06:12:41;95635.94;;;10.98;100.00
61035;BME280;46916;40.564;-7.958;2022-12-08T06:14:41;95636.75;;;10.99;100.00
61035;BME280;46916;40.564;-7.958;2022-12-08T06:16:42;95634.94;;;10.99;100.00
61035;BME280;46916;40.564;-7.958;2022-12-08T06:18:43;95623.47;;;11.00;100.00
61035;BME280;46916;40.564;-7.958;2022-12-08T06:20:44;95623.28;;;11.02;100.00
61035;BME280;46916;40.564;-7.958;2022-12-08T06:22:45;95628.38;;;11.03;100.00
61035;BME280;46916;40.564;-7.958;2022-12-08T06:24:45;95623.75;;;11.05;100.00
61035;BME280;46916;40.564;-7.958;2022-12-08T06:26:46;95620.16;;;11.06;100.00
61035;BME280;46916;40.564;-7.958;2022-12-08T06:28:47;95622.13;;;11.04;100.00
61035;BME280;46916;40.564;-7.958;2022-12-08T06:30:48;95624.56;;;11.06;100.00
61035;BME280;46916;40.564;-7.958;2022-12-08T06:32:49;95613.09;;;11.07;100.00
61035;BME280;46916;40.564;-7.958;2022-12-08T06:34:50;95627.00;;;11.07;100.00
61035;BME280;46916;40.564;-7.958;2022-12-08T06:36:50;95629.63;;;11.07;100.00
61035;BME280;46916;40.564;-7.958;2022-12-08T06:38:51;95624.22;;;11.09;100.00
61035;BME280;46916;40.564;-7.958;2022-12-08T06:40:53;95631.91;;;11.10;100.00
61035;BME280;46916;40.564;-7.958;2022-12-08T06:42:54;95634.16;;;11.13;100.00
61035;BME280;46916;40.564;-7.958;2022-12-08T06:44:55;95629.56;;;11.15;100.00
61035;BME280;46916;40.564;-7.958;2022-12-08T06:46:56;95633.63;;;11.18;100.00
61035;BME280;46916;40.564;-7.958;2022-12-08T06:48:57;95632.66;;;11.19;100.00
61035;BME280;46916;40.564;-7.958;2022-12-08T06:51:12;95632.47;;;11.21;100.00
61035;BME280;46916;40.564;-7.958;2022-12-08T06:53:14;95628.22;;;11.20;100.00
61035;BME280;46916;40.564;-7.958;2022-12-08T06:55:15;95630.50;;;11.23;100.00
61035;BME280;46916;40.564;-7.958;2022-12-08T06:57:16;95622.63;;;11.23;100.00
61035;BME280;46916;40.564;-7.958;2022-12-08T06:59:17;95629.66;;;11.22;100.00
61035;BME280;46916;40.564;-7.958;2022-12-08T07:01:19;95632.28;;;11.22;100.00
61035;BME280;46916;40.564;-7.958;2022-12-08T07:03:20;95629.50;;;11.24;100.00
61035;BME280;46916;40.564;-7.958;2022-12-08T07:05:20;95624.25;;;11.24;100.00
61035;BME280;46916;40.564;-7.958;2022-12-08T07:07:21;95628.31;;;11.26;100.00
61035;BME280;46916;40.564;-7.958;2022-12-08T07:09:21;95624.88;;;11.26;100.00
61035;BME280;46916;40.564;-7.958;2022-12-08T07:11:22;95618.66;;;11.27;100.00
61035;BME280;46916;40.564;-7.958;2022-12-08T07:13:23;95622.25;;;11.26;100.00
61035;BME280;46916;40.564;-7.958;2022-12-08T07:15:23;95611.97;;;11.24;100.00
61035;BME280;46916;40.564;-7.958;2022-12-08T07:17:24;95620.63;;;11.25;100.00
61035;BME280;46916;40.564;-7.958;2022-12-08T07:19:25;95626.69;;;11.25;100.00
61035;BME280;46916;40.564;-7.958;2022-12-08T07:21:25;95619.63;;;11.26;100.00
61035;BME280;46916;40.564;-7.958;2022-12-08T07:23:26;95624.06;;;11.25;100.00
61035;BME280;46916;40.564;-7.958;2022-12-08T07:25:27;95625.88;;;11.25;100.00
61035;BME280;46916;40.564;-7.958;2022-12-08T07:27:27;95627.69;;;11.24;100.00
61035;BME280;46916;40.564;-7.958;2022-12-08T07:29:28;95620.81;;;11.23;100.00
61035;BME280;46916;40.564;-7.958;2022-12-08T07:31:29;95622.63;;;11.23;100.00
61035;BME280;46916;40.564;-7.958;2022-12-08T07:33:30;95627.88;;;11.23;100.00
61035;BME280;46916;40.564;-7.958;2022-12-08T07:35:31;95633.94;;;11.23;99.99
61035;BME280;46916;40.564;-7.958;2022-12-08T07:37:32;95626.59;;;11.19;99.97
61035;BME280;46916;40.564;-7.958;2022-12-08T07:39:33;95633.81;;;11.16;100.00
61035;BME280;46916;40.564;-7.958;2022-12-08T07:41:34;95638.59;;;11.13;100.00
61035;BME280;46916;40.564;-7.958;2022-12-08T07:43:35;95644.63;;;11.13;100.00
61035;BME280;46916;40.564;-7.958;2022-12-08T07:45:35;95643.66;;;11.14;100.00
61035;BME280;46916;40.564;-7.958;2022-12-08T07:47:36;95643.47;;;11.16;100.00
61035;BME280;46916;40.564;-7.958;2022-12-08T07:49:37;95651.16;;;11.18;100.00
61035;BME280;46916;40.564;-7.958;2022-12-08T07:51:38;95654.78;;;11.16;100.00
61035;BME280;46916;40.564;-7.958;2022-12-08T07:53:39;95658.13;;;11.10;100.00
61035;BME280;46916;40.564;-7.958;2022-12-08T07:55:42;95659.78;;;11.03;100.00
61035;BME280;46916;40.564;-7.958;2022-12-08T07:57:42;95670.44;;;11.02;100.00
61035;BME280;46916;40.564;-7.958;2022-12-08T07:59:43;95668.66;;;11.02;100.00
61035;BME280;46916;40.564;-7.958;2022-12-08T08:01:44;95660.78;;;11.02;100.00
61035;BME280;46916;40.564;-7.958;2022-12-08T08:03:45;95654.91;;;11.00;100.00
61035;BME280;46916;40.564;-7.958;2022-12-08T08:05:46;95649.19;;;10.97;100.00
61035;BME280;46916;40.564;-7.958;2022-12-08T08:07:48;95653.63;;;10.96;100.00
61035;BME280;46916;40.564;-7.958;2022-12-08T08:09:49;95654.44;;;10.97;100.00
61035;BME280;46916;40.564;-7.958;2022-12-08T08:11:49;95654.44;;;10.97;100.00
61035;BME280;46916;40.564;-7.958;2022-12-08T08:13:50;95644.75;;;10.97;100.00
61035;BME280;46916;40.564;-7.958;2022-12-08T08:15:51;95646.22;;;11.00;100.00
61035;BME280;46916;40.564;-7.958;2022-12-08T08:17:52;95645.69;;;11.04;100.00
61035;BME280;46916;40.564;-7.958;2022-12-08T08:19:52;95652.56;;;11.05;100.00
61035;BME280;46916;40.564;-7.958;2022-12-08T08:21:53;95655.84;;;11.07;100.00
61035;BME280;46916;40.564;-7.958;2022-12-08T08:23:54;95647.63;;;11.10;100.00
61035;BME280;46916;40.564;-7.958;2022-12-08T08:25:58;95637.78;;;11.12;100.00
61035;BME280;46916;40.564;-7.958;2022-12-08T08:27:59;95641.03;;;11.14;100.00
61035;BME280;46916;40.564;-7.958;2022-12-08T08:30:00;95638.44;;;11.14;100.00
61035;BME280;46916;40.564;-7.958;2022-12-08T08:32:01;95642.00;;;11.13;100.00
61035;BME280;46916;40.564;-7.958;2022-12-08T08:34:01;95638.25;;;11.16;100.00
61035;BME280;46916;40.564;-7.958;2022-12-08T08:36:07;95632.81;;;11.18;100.00
61035;BME280;46916;40.564;-7.958;2022-12-08T08:38:07;95638.06;;;11.18;100.00
61035;BME280;46916;40.564;-7.958;2022-12-08T08:40:08;95646.72;;;11.18;100.00
61035;BME280;46916;40.564;-7.958;2022-12-08T08:42:09;95639.25;;;11.15;100.00
61035;BME280;46916;40.564;-7.958;2022-12-08T08:44:12;95643.81;;;11.13;100.00
61035;BME280;46916;40.564;-7.958;2022-12-08T08:46:13;95644.63;;;11.13;100.00
61035;BME280;46916;40.564;-7.958;2022-12-08T08:48:13;95639.13;;;11.08;100.00
61035;BME280;46916;40.564;-7.958;2022-12-08T08:50:14;95643.53;;;11.08;100.00
61035;BME280;46916;40.564;-7.958;2022-12-08T08:52:15;95633.25;;;11.06;100.00
61035;BME280;46916;40.564;-7.958;2022-12-08T08:54:15;95632.41;;;11.06;100.00
61035;BME280;46916;40.564;-7.958;2022-12-08T08:56:17;95635.56;;;11.01;100.00
61035;BME280;46916;40.564;-7.958;2022-12-08T08:58:21;95641.00;;;11.00;100.00
61035;BME280;46916;40.564;-7.958;2022-12-08T09:00:22;95652.00;;;10.95;100.00
61035;BME280;46916;40.564;-7.958;2022-12-08T09:02:23;95653.81;;;10.95;100.00
61035;BME280;46916;40.564;-7.958;2022-12-08T09:04:23;95654.63;;;10.95;100.00
61035;BME280;46916;40.564;-7.958;2022-12-08T09:06:25;95650.81;;;10.98;100.00
61035;BME280;46916;40.564;-7.958;2022-12-08T09:08:27;95653.28;;;10.99;100.00
61035;BME280;46916;40.564;-7.958;2022-12-08T09:10:27;95659.13;;;11.01;100.00
61035;BME280;46916;40.564;-7.958;2022-12-08T09:12:28;95664.69;;;11.06;100.00
61035;BME280;46916;40.564;-7.958;2022-12-08T09:14:29;95665.97;;;11.10;100.00
61035;BME280;46916;40.564;-7.958;2022-12-08T09:16:29;95666.41;;;11.14;100.00
61035;BME280;46916;40.564;-7.958;2022-12-08T09:18:30;95666.88;;;11.18;100.00
61035;BME280;46916;40.564;-7.958;2022-12-08T09:20:33;95662.91;;;11.22;100.00
61035;BME280;46916;40.564;-7.958;2022-12-08T09:22:34;95665.00;;;11.26;100.00
61035;BME280;46916;40.564;-7.958;2022-12-08T09:24:34;95673.31;;;11.30;100.00
61035;BME280;46916;40.564;-7.958;2022-12-08T09:26:35;95676.75;;;11.30;100.00
61035;BME280;46916;40.564;-7.958;2022-12-08T09:28:36;95673.16;;;11.31;100.00
61035;BME280;46916;40.564;-7.958;2022-12-08T09:30:37;95675.78;;;11.31;100.00
61035;BME280;46916;40.564;-7.958;2022-12-08T09:32:38;95673.16;;;11.31;100.00
61035;BME280;46916;40.564;-7.958;2022-12-08T09:34:39;95661.03;;;11.30;100.00
61035;BME280;46916;40.564;-7.958;2022-12-08T09:36:39;95666.28;;;11.30;100.00
61035;BME280;46916;40.564;-7.958;2022-12-08T09:38:40;95671.16;;;11.33;100.00
61035;BME280;46916;40.564;-7.958;2022-12-08T09:40:49;95672.78;;;11.34;100.00
61035;BME280;46916;40.564;-7.958;2022-12-08T09:45:11;95688.34;;;11.36;99.15
61035;BME280;46916;40.564;-7.958;2022-12-08T09:47:36;95688.97;;;11.38;99.24
61035;BME280;46916;40.564;-7.958;2022-12-08T09:49:43;95683.38;;;11.41;98.83
61035;BME280;46916;40.564;-7.958;2022-12-08T09:51:46;95688.28;;;11.44;98.36
61035;BME280;46916;40.564;-7.958;2022-12-08T09:55:57;95691.19;;;11.49;97.92
61035;BME280;46916;40.564;-7.958;2022-12-08T09:58:02;95696.44;;;11.49;98.39
61035;BME280;46916;40.564;-7.958;2022-12-08T10:00:05;95702.66;;;11.48;98.04
61035;BME280;46916;40.564;-7.958;2022-12-08T10:02:21;95704.94;;;11.51;97.87
61035;BME280;46916;40.564;-7.958;2022-12-08T10:04:29;95710.00;;;11.53;97.86
61035;BME280;46916;40.564;-7.958;2022-12-08T10:11:22;95718.31;;;11.56;97.27
61035;BME280;46916;40.564;-7.958;2022-12-08T10:17:40;95728.16;;;11.54;98.16
61035;BME280;46916;40.564;-7.958;2022-12-08T10:19:42;95731.97;;;11.52;98.63
61035;BME280;46916;40.564;-7.958;2022-12-08T10:21:45;95727.88;;;11.49;99.33
61035;BME280;46916;40.564;-7.958;2022-12-08T10:23:51;95727.06;;;11.49;99.29
61035;BME280;46916;40.564;-7.958;2022-12-08T10:25:59;95727.06;;;11.49;99.38
61035;BME280;46916;40.564;-7.958;2022-12-08T10:28:00;95723.44;;;11.50;99.66
61035;BME280;46916;40.564;-7.958;2022-12-08T10:30:05;95722.63;;;11.49;99.30
61035;BME280;46916;40.564;-7.958;2022-12-08T10:32:17;95731.50;;;11.48;99.80
61035;BME280;46916;40.564;-7.958;2022-12-08T10:34:21;95730.69;;;11.48;99.94
61035;BME280;46916;40.564;-7.958;2022-12-08T10:36:44;95726.06;;;11.50;99.91
61035;BME280;46916;40.564;-7.958;2022-12-08T10:38:45;95723.44;;;11.50;100.00
61035;BME280;46916;40.564;-7.958;2022-12-08T10:40:48;95720.03;;;11.49;100.00
61035;BME280;46916;40.564;-7.958;2022-12-08T10:42:52;95715.44;;;11.51;100.00
61035;BME280;46916;40.564;-7.958;2022-12-08T10:47:11;95698.16;;;11.57;100.00
61035;BME280;46916;40.564;-7.958;2022-12-08T10:49:24;95703.22;;;11.58;100.00
61035;BME280;46916;40.564;-7.958;2022-12-08T10:51:37;95692.72;;;11.58;100.00
61035;BME280;46916;40.564;-7.958;2022-12-08T10:53:44;95693.53;;;11.59;100.00
61035;BME280;46916;40.564;-7.958;2022-12-08T10:55:47;95689.28;;;11.58;100.00
61035;BME280;46916;40.564;-7.958;2022-12-08T10:57:48;95681.63;;;11.56;100.00
61035;BME280;46916;40.564;-7.958;2022-12-08T10:59:49;95682.44;;;11.57;100.00
61035;BME280;46916;40.564;-7.958;2022-12-08T11:01:51;95680.00;;;11.55;100.00
61035;BME280;46916;40.564;-7.958;2022-12-08T11:03:56;95675.09;;;11.52;100.00
61035;BME280;46916;40.564;-7.958;2022-12-08T11:05:58;95679.06;;;11.48;100.00
61035;BME280;46916;40.564;-7.958;2022-12-08T11:07:59;95680.88;;;11.48;100.00
61035;BME280;46916;40.564;-7.958;2022-12-08T11:10:00;95692.34;;;11.47;100.00
61035;BME280;46916;40.564;-7.958;2022-12-08T11:12:12;95683.66;;;11.46;100.00
61035;BME280;46916;40.564;-7.958;2022-12-08T11:16:23;95678.88;;;11.50;100.00
61035;BME280;46916;40.564;-7.958;2022-12-08T11:18:28;95695.44;;;11.50;100.00
61035;BME280;46916;40.564;-7.958;2022-12-08T11:20:39;95679.69;;;11.50;100.00
61035;BME280;46916;40.564;-7.958;2022-12-08T11:22:43;95676.53;;;11.55;100.00
61035;BME280;46916;40.564;-7.958;2022-12-08T11:24:44;95677.38;;;11.55;100.00
61035;BME280;46916;40.564;-7.958;2022-12-08T11:27:09;95681.16;;;11.53;100.00